createdAt,value
2023-02-17T00:01:44.727Z,68.53
2023-02-17T00:04:13.796Z,68.63
2023-02-17T00:06:44.008Z,66.50
2023-02-17T00:09:13.197Z,68.93
2023-02-17T00:11:42.074Z,70.10
2023-02-17T00:14:13.477Z,68.57
2023-02-17T00:16:42.402Z,73.47
2023-02-17T00:19:26.094Z,63.83
2023-02-17T00:21:58.507Z,69.80
2023-02-17T00:24:31.145Z,68.05
2023-02-17T00:27:00.232Z,69.30
2023-02-17T00:29:29.409Z,69.03
2023-02-17T00:31:58.408Z,64.97
2023-02-17T00:34:28.541Z,68.80
2023-02-17T00:36:58.891Z,66.95
2023-02-17T00:39:28.795Z,66.47
2023-02-17T00:41:57.789Z,66.85
2023-02-17T00:44:27.193Z,70.30
2023-02-17T00:46:56.069Z,70.43
2023-02-17T00:49:27.981Z,63.33
2023-02-17T00:52:00.860Z,70.20
2023-02-17T00:54:30.101Z,66.18
2023-02-17T00:56:58.962Z,62.95
2023-02-17T00:59:28.185Z,68.93
2023-02-17T01:01:57.030Z,67.70
2023-02-17T01:04:26.261Z,69.57
2023-02-17T01:06:55.232Z,68.07
2023-02-17T01:09:27.148Z,69.43
2023-02-17T01:11:55.992Z,70.80
2023-02-17T01:14:26.990Z,71.05
2023-02-17T01:16:58.091Z,77.57
2023-02-17T01:19:27.193Z,68.68
2023-02-17T01:21:56.050Z,65.63
2023-02-17T01:24:26.526Z,64.10
2023-02-17T01:26:55.422Z,65.70
2023-02-17T01:29:24.619Z,71.90
2023-02-17T01:31:53.533Z,69.55
2023-02-17T01:34:22.692Z,68.75
2023-02-17T01:36:51.472Z,66.93
2023-02-17T01:39:20.582Z,69.25
2023-02-17T01:41:51.453Z,70.35
2023-02-17T01:44:25.682Z,67.00
2023-02-17T01:46:56.753Z,64.85
2023-02-17T01:49:34.249Z,66.82
2023-02-17T01:52:12.337Z,71.72
2023-02-17T01:54:48.402Z,66.57
2023-02-17T01:57:23.032Z,64.15
2023-02-17T01:59:53.675Z,64.35
2023-02-17T02:02:23.337Z,65.53
2023-02-17T02:04:55.125Z,64.82
2023-02-17T02:07:29.974Z,65.93
2023-02-17T02:10:01.103Z,69.85
2023-02-17T02:12:35.053Z,66.43
2023-02-17T02:15:10.461Z,68.03
2023-02-17T02:18:03.052Z,72.90
2023-02-17T02:21:37.447Z,65.38
2023-02-17T02:24:22.898Z,67.38
2023-02-17T02:27:43.155Z,68.82
2023-02-17T02:30:52.706Z,65.05
2023-02-17T02:33:35.446Z,68.00
2023-02-17T02:36:13.886Z,62.17
2023-02-17T02:38:51.226Z,62.92
2023-02-17T02:41:26.324Z,66.85
2023-02-17T02:43:55.976Z,65.00
2023-02-17T02:46:26.003Z,60.72
2023-02-17T02:48:56.653Z,67.10
2023-02-17T02:51:40.417Z,67.07
2023-02-17T02:54:28.123Z,62.92
2023-02-17T02:57:30.557Z,67.75
2023-02-17T03:00:20.556Z,62.78
2023-02-17T03:02:56.998Z,60.47
2023-02-17T03:05:39.785Z,65.03
2023-02-17T03:08:16.059Z,70.95
2023-02-17T03:10:50.630Z,62.28
2023-02-17T03:13:21.512Z,60.88
2023-02-17T03:15:51.396Z,62.55
2023-02-17T03:18:21.169Z,64.38
2023-02-17T03:20:57.510Z,61.35
2023-02-17T03:23:27.448Z,63.97
2023-02-17T03:25:56.546Z,60.55
2023-02-17T03:28:25.470Z,65.25
2023-02-17T03:30:54.991Z,58.42
2023-02-17T03:33:23.828Z,66.25
2023-02-17T03:35:56.000Z,65.88
2023-02-17T03:38:25.346Z,62.97
2023-02-17T03:40:54.548Z,69.47
2023-02-17T03:43:23.357Z,59.80
2023-02-17T03:45:52.478Z,66.30
2023-02-17T03:48:21.447Z,59.85
2023-02-17T03:50:50.563Z,59.88
2023-02-17T03:53:20.755Z,63.60
2023-02-17T03:55:49.822Z,65.22
2023-02-17T03:58:18.644Z,67.43
2023-02-17T04:00:47.691Z,64.38
2023-02-17T04:03:16.477Z,64.68
2023-02-17T04:05:46.378Z,62.95
2023-02-17T04:08:15.192Z,64.15
2023-02-17T04:10:45.815Z,67.90
2023-02-17T04:13:14.685Z,64.72
2023-02-17T04:15:43.751Z,71.65
2023-02-17T04:18:12.631Z,65.60
2023-02-17T04:20:41.963Z,65.13
2023-02-17T04:23:10.842Z,64.00
2023-02-17T04:25:40.011Z,61.30
2023-02-17T04:28:13.103Z,67.13
2023-02-17T04:30:45.469Z,63.35
2023-02-17T04:33:14.326Z,68.35
2023-02-17T04:35:43.960Z,64.95
2023-02-17T04:38:13.102Z,70.93
2023-02-17T04:40:43.204Z,68.90
2023-02-17T04:43:13.517Z,88.47
2023-02-17T04:45:42.765Z,84.55
2023-02-17T04:48:11.567Z,73.25
2023-02-17T04:50:40.643Z,67.95
2023-02-17T04:53:09.414Z,66.05
2023-02-17T04:55:38.547Z,63.15
2023-02-17T04:58:07.394Z,68.65
2023-02-17T05:00:38.366Z,64.95
2023-02-17T05:03:07.283Z,74.68
2023-02-17T05:05:36.451Z,69.10
2023-02-17T05:08:05.977Z,69.40
2023-02-17T05:10:35.133Z,63.85
2023-02-17T05:13:03.937Z,61.92
2023-02-17T05:15:34.870Z,65.38
2023-02-17T05:18:05.772Z,66.03
2023-02-17T05:20:34.838Z,66.43
2023-02-17T05:23:03.661Z,63.42
2023-02-17T05:25:33.067Z,62.63
2023-02-17T05:28:01.912Z,64.43
2023-02-17T05:30:31.091Z,66.60
2023-02-17T05:33:00.855Z,71.32
2023-02-17T05:35:32.102Z,64.70
2023-02-17T05:38:02.095Z,63.72
2023-02-17T05:40:31.223Z,64.75
2023-02-17T05:43:00.029Z,59.63
2023-02-17T05:45:29.129Z,65.10
2023-02-17T05:47:57.949Z,65.45
2023-02-17T05:50:27.080Z,65.28
2023-02-17T05:53:05.797Z,64.65
2023-02-17T05:55:34.974Z,66.25
2023-02-17T05:58:03.913Z,59.95
2023-02-17T06:00:32.989Z,64.28
2023-02-17T06:03:01.831Z,60.95
2023-02-17T06:05:31.001Z,63.90
2023-02-17T06:08:00.216Z,64.15
2023-02-17T06:10:30.676Z,65.57
2023-02-17T06:12:59.790Z,65.32
2023-02-17T06:15:29.900Z,60.95
2023-02-17T06:17:58.760Z,65.55
2023-02-17T06:20:27.834Z,66.28
2023-02-17T06:22:56.642Z,62.80
2023-02-17T06:25:25.858Z,67.20
2023-02-17T06:27:56.337Z,64.22
2023-02-17T06:30:25.541Z,66.53
2023-02-17T06:32:54.316Z,58.80
2023-02-17T06:35:23.421Z,59.03
2023-02-17T06:37:52.600Z,64.70
2023-02-17T06:40:22.036Z,62.03
2023-02-17T06:42:50.913Z,58.65
2023-02-17T06:45:21.767Z,63.30
2023-02-17T06:47:50.534Z,56.45
2023-02-17T06:50:19.727Z,61.00
2023-02-17T06:52:48.512Z,61.53
2023-02-17T06:55:17.749Z,65.43
2023-02-17T06:57:46.646Z,68.28
2023-02-17T07:00:16.472Z,63.80
2023-02-17T07:02:46.737Z,58.35
2023-02-17T07:05:15.929Z,60.60
2023-02-17T07:07:44.740Z,60.53
2023-02-17T07:10:14.421Z,61.88
2023-02-17T07:12:43.255Z,58.25
2023-02-17T07:15:12.662Z,59.60
2023-02-17T07:17:41.623Z,58.72
2023-02-17T07:20:13.678Z,61.47
2023-02-17T07:22:42.548Z,60.67
2023-02-17T07:25:11.648Z,60.58
2023-02-17T07:27:40.615Z,63.05
2023-02-17T07:30:11.241Z,58.28
2023-02-17T07:32:40.093Z,61.58
2023-02-17T07:35:09.500Z,58.42
2023-02-17T07:37:39.658Z,61.47
2023-02-17T07:40:10.056Z,60.92
2023-02-17T07:42:39.004Z,60.13
2023-02-17T07:45:09.378Z,57.38
2023-02-17T07:47:38.154Z,56.75
2023-02-17T07:50:09.371Z,59.42
2023-02-17T07:52:39.697Z,57.65
2023-02-17T07:55:09.321Z,54.90
2023-02-17T07:57:38.139Z,56.50
2023-02-17T08:00:10.901Z,54.92
2023-02-17T08:02:42.469Z,58.55
2023-02-17T08:05:11.754Z,55.78
2023-02-17T08:07:43.045Z,53.25
2023-02-17T08:10:31.842Z,54.97
2023-02-17T08:13:18.513Z,56.25
2023-02-17T08:15:47.594Z,51.67
2023-02-17T08:18:16.528Z,54.60
2023-02-17T08:20:45.851Z,54.78
2023-02-17T08:23:16.159Z,57.65
2023-02-17T08:25:45.301Z,60.28
2023-02-17T08:28:14.822Z,54.45
2023-02-17T08:30:44.010Z,52.50
2023-02-17T08:33:17.936Z,54.40
2023-02-17T08:35:47.081Z,49.28
2023-02-17T08:38:17.516Z,53.70
2023-02-17T08:40:46.730Z,51.38
2023-02-17T08:43:16.077Z,50.92
2023-02-17T08:45:45.513Z,49.45
2023-02-17T08:48:14.348Z,53.67
2023-02-17T08:50:43.461Z,47.38
2023-02-17T08:53:12.396Z,50.55
2023-02-17T08:55:49.191Z,49.58
2023-02-17T08:58:18.736Z,48.17
2023-02-17T09:00:47.938Z,50.20
2023-02-17T09:03:16.847Z,53.35
2023-02-17T09:05:46.219Z,51.10
2023-02-17T09:08:15.138Z,52.95
2023-02-17T09:10:45.696Z,52.60
2023-02-17T09:13:14.724Z,47.92
2023-02-17T09:15:43.953Z,50.78
2023-02-17T09:18:13.137Z,51.85
2023-02-17T09:20:42.714Z,49.42
2023-02-17T09:23:11.511Z,49.13
2023-02-17T09:25:40.604Z,53.33
2023-02-17T09:28:11.530Z,51.45
2023-02-17T09:30:40.829Z,55.17
2023-02-17T09:33:09.812Z,48.72
2023-02-17T09:35:39.888Z,51.88
2023-02-17T09:38:10.347Z,52.65
2023-02-17T09:40:47.396Z,47.80
2023-02-17T09:43:23.648Z,54.92
2023-02-17T09:46:01.631Z,48.35
2023-02-17T09:48:35.092Z,49.92
2023-02-17T09:51:12.718Z,51.05
2023-02-17T09:53:53.240Z,46.13
2023-02-17T09:56:33.566Z,49.65
2023-02-17T09:59:13.113Z,49.55
2023-02-17T10:01:45.462Z,51.80
2023-02-17T10:04:20.861Z,53.45
2023-02-17T10:06:55.775Z,48.97
2023-02-17T10:09:33.208Z,48.65
2023-02-17T10:12:06.811Z,49.17
2023-02-17T10:14:44.515Z,49.22
2023-02-17T10:17:26.003Z,47.42
2023-02-17T10:20:04.101Z,48.60
2023-02-17T10:22:34.841Z,53.97
2023-02-17T10:25:16.143Z,52.15
2023-02-17T10:27:55.524Z,47.90
2023-02-17T10:30:40.915Z,50.25
2023-02-17T10:33:23.032Z,54.38
2023-02-17T10:35:54.803Z,50.05
2023-02-17T10:38:46.585Z,50.08
2023-02-17T10:41:22.341Z,50.65
2023-02-17T10:43:52.790Z,48.38
2023-02-17T10:46:30.428Z,50.08
2023-02-17T10:49:01.477Z,51.40
2023-02-17T10:51:33.094Z,53.47
2023-02-17T10:54:09.328Z,46.58
2023-02-17T10:56:45.714Z,48.60
2023-02-17T10:59:24.349Z,47.55
2023-02-17T11:02:01.648Z,53.22
2023-02-17T11:04:43.522Z,49.80
2023-02-17T11:07:16.050Z,51.83
2023-02-17T11:09:50.311Z,49.15
2023-02-17T11:12:39.966Z,50.17
2023-02-17T11:15:20.230Z,48.05
2023-02-17T11:17:50.724Z,45.53
2023-02-17T11:20:34.936Z,50.42
2023-02-17T11:23:23.508Z,50.28
2023-02-17T11:26:04.611Z,48.40
2023-02-17T11:28:33.590Z,46.88
2023-02-17T11:31:04.985Z,46.30
2023-02-17T11:33:38.557Z,45.05
2023-02-17T11:36:13.708Z,44.13
2023-02-17T11:38:47.863Z,44.75
2023-02-17T11:41:17.929Z,47.70
2023-02-17T11:43:55.770Z,45.38
2023-02-17T11:46:34.924Z,44.20
2023-02-17T11:49:41.442Z,45.25
2023-02-17T11:52:34.196Z,47.35
2023-02-17T11:55:30.450Z,46.15
2023-02-17T11:58:25.829Z,46.22
2023-02-17T12:01:07.789Z,45.88
2023-02-17T12:04:26.963Z,46.55
2023-02-17T12:07:25.334Z,43.17
2023-02-17T12:10:04.785Z,45.20
2023-02-17T12:12:58.897Z,44.08
2023-02-17T12:15:50.136Z,47.13
2023-02-17T12:18:42.766Z,47.63
2023-02-17T12:21:24.700Z,42.17
2023-02-17T12:24:24.275Z,42.70
2023-02-17T12:27:05.092Z,44.35
2023-02-17T12:29:55.809Z,43.70
2023-02-17T12:32:48.471Z,40.83
2023-02-17T12:35:24.777Z,39.20
2023-02-17T12:38:01.892Z,38.53
2023-02-17T12:40:40.155Z,42.97
2023-02-17T12:43:25.977Z,39.55
2023-02-17T12:46:00.351Z,40.80
2023-02-17T12:48:37.848Z,39.30
2023-02-17T12:51:14.360Z,37.28
2023-02-17T12:53:52.637Z,37.38
2023-02-17T12:57:06.607Z,36.15
2023-02-17T12:59:37.916Z,32.33
2023-02-17T13:02:12.703Z,33.75
2023-02-17T13:04:44.760Z,32.38
2023-02-17T13:07:45.932Z,32.10
2023-02-17T13:10:34.162Z,33.63
2023-02-17T13:13:07.582Z,28.95
2023-02-17T13:15:40.558Z,25.88
2023-02-17T13:18:16.026Z,28.83
2023-02-17T13:20:57.614Z,27.20
2023-02-17T13:23:40.419Z,28.25
2023-02-17T13:26:29.888Z,28.35
2023-02-17T13:29:35.736Z,27.77
2023-02-17T13:32:08.169Z,26.75
2023-02-17T13:34:42.426Z,27.80
2023-02-17T13:37:28.244Z,28.35
2023-02-17T13:39:57.245Z,27.90
2023-02-17T13:42:40.259Z,28.95
2023-02-17T13:45:28.662Z,28.52
2023-02-17T13:48:01.145Z,29.83
2023-02-17T13:50:34.743Z,30.70
2023-02-17T13:53:21.499Z,29.25
2023-02-17T13:55:50.735Z,28.52
2023-02-17T13:58:29.742Z,27.17
2023-02-17T14:01:01.532Z,28.70
2023-02-17T14:03:42.228Z,27.15
2023-02-17T14:06:21.785Z,31.30
2023-02-17T14:08:51.000Z,28.77
2023-02-17T14:11:24.323Z,26.83
2023-02-17T14:13:58.506Z,28.60
2023-02-17T14:16:31.652Z,26.27
2023-02-17T14:19:07.698Z,32.40
2023-02-17T14:21:38.317Z,28.92
2023-02-17T14:24:10.882Z,25.42
2023-02-17T14:26:47.667Z,27.17
2023-02-17T14:29:18.178Z,33.45
2023-02-17T14:31:50.583Z,25.63
2023-02-17T14:34:29.129Z,27.67
2023-02-17T14:37:10.667Z,27.55
2023-02-17T14:39:39.765Z,26.23
2023-02-17T14:42:08.583Z,25.65
2023-02-17T14:44:39.913Z,23.98
2023-02-17T14:47:08.819Z,29.50
2023-02-17T14:49:37.893Z,27.77
2023-02-17T14:52:21.644Z,27.05
2023-02-17T14:54:51.400Z,27.05
2023-02-17T14:57:26.264Z,28.05
2023-02-17T14:59:57.884Z,29.70
2023-02-17T15:02:26.778Z,26.88
2023-02-17T15:04:56.011Z,29.58
2023-02-17T15:07:24.981Z,29.63
2023-02-17T15:09:54.222Z,31.98
2023-02-17T15:12:25.530Z,34.60
2023-02-17T15:14:57.050Z,30.73
2023-02-17T15:17:25.987Z,33.67
2023-02-17T15:19:55.127Z,33.67
2023-02-17T15:22:25.527Z,33.80
2023-02-17T15:24:54.818Z,33.22
2023-02-17T15:27:23.855Z,33.20
2023-02-17T15:29:52.939Z,32.40
2023-02-17T15:32:24.081Z,30.42
2023-02-17T15:34:53.242Z,32.50
2023-02-17T15:37:22.077Z,30.77
2023-02-17T15:39:51.219Z,33.72
2023-02-17T15:42:20.927Z,31.08
2023-02-17T15:44:52.648Z,30.13
2023-02-17T15:47:22.880Z,30.90
2023-02-17T15:49:52.130Z,29.98
2023-02-17T15:52:20.994Z,29.70
2023-02-17T15:54:50.088Z,29.10
2023-02-17T15:57:24.085Z,30.02
2023-02-17T15:59:55.355Z,29.25
2023-02-17T16:02:27.275Z,28.17
2023-02-17T16:04:56.396Z,27.02
2023-02-17T16:07:25.209Z,26.90
2023-02-17T16:09:54.346Z,26.38
2023-02-17T16:12:27.213Z,26.35
2023-02-17T16:14:58.335Z,28.63
2023-02-17T16:17:29.031Z,25.35
2023-02-17T16:19:58.157Z,26.10
2023-02-17T16:22:27.002Z,26.50
2023-02-17T16:24:56.217Z,21.50
2023-02-17T16:27:25.214Z,25.17
2023-02-17T16:29:54.744Z,25.10
2023-02-17T16:32:23.597Z,24.58
2023-02-17T16:34:54.151Z,23.33
2023-02-17T16:37:23.071Z,23.50
2023-02-17T16:39:52.726Z,22.08
2023-02-17T16:42:21.580Z,21.05
2023-02-17T16:44:50.639Z,21.67
2023-02-17T16:47:23.938Z,20.52
2023-02-17T16:49:54.437Z,19.05
2023-02-17T16:52:28.036Z,16.73
2023-02-17T16:54:57.117Z,21.55
2023-02-17T16:57:26.467Z,18.92
2023-02-17T16:59:56.036Z,19.00
2023-02-17T17:02:24.860Z,19.95
2023-02-17T17:04:55.380Z,18.60
2023-02-17T17:07:24.190Z,19.08
2023-02-17T17:10:15.174Z,21.77
2023-02-17T17:12:42.685Z,19.30
2023-02-17T17:15:12.833Z,18.00
2023-02-17T17:17:47.296Z,19.50
2023-02-17T17:20:24.025Z,42.92
2023-02-17T17:22:52.891Z,20.52
2023-02-17T17:25:22.016Z,20.10
2023-02-17T17:27:51.068Z,21.13
2023-02-17T17:30:22.889Z,19.30
2023-02-17T17:32:51.911Z,18.25
2023-02-17T17:35:22.615Z,17.42
2023-02-17T17:37:51.628Z,16.55
2023-02-17T17:40:23.864Z,20.70
2023-02-17T17:42:53.435Z,16.98
2023-02-17T17:45:26.580Z,16.17
2023-02-17T17:47:55.613Z,16.17
2023-02-17T17:50:26.505Z,15.32
2023-02-17T17:52:55.374Z,15.18
2023-02-17T17:55:24.532Z,16.73
2023-02-17T17:57:53.745Z,17.35
2023-02-17T18:00:23.289Z,16.25
2023-02-17T18:02:52.103Z,13.15
2023-02-17T18:05:21.617Z,12.27
2023-02-17T18:07:52.919Z,13.90
2023-02-17T18:10:22.262Z,14.70
2023-02-17T18:12:51.227Z,12.88
2023-02-17T18:15:21.116Z,14.80
2023-02-17T18:17:50.700Z,15.20
2023-02-17T18:20:20.687Z,14.25
2023-02-17T18:22:50.847Z,15.30
2023-02-17T18:25:20.138Z,16.23
2023-02-17T18:27:49.250Z,14.93
2023-02-17T18:30:23.502Z,15.65
2023-02-17T18:32:52.949Z,11.90
2023-02-17T18:35:22.956Z,11.13
2023-02-17T18:37:53.702Z,11.38
2023-02-17T18:40:23.672Z,15.20
2023-02-17T18:42:52.622Z,12.52
2023-02-17T18:45:22.425Z,12.90
2023-02-17T18:47:51.292Z,12.10
2023-02-17T18:50:20.964Z,11.65
2023-02-17T18:52:49.805Z,12.60
2023-02-17T18:55:20.780Z,12.52
2023-02-17T18:57:49.564Z,14.75
2023-02-17T19:00:19.519Z,10.70
2023-02-17T19:02:48.416Z,11.13
2023-02-17T19:05:18.291Z,11.50
2023-02-17T19:07:47.099Z,12.45
2023-02-17T19:10:16.889Z,13.23
2023-02-17T19:12:47.241Z,12.73
2023-02-17T19:15:20.758Z,12.88
2023-02-17T19:17:51.080Z,11.88
2023-02-17T19:20:20.349Z,12.77
2023-02-17T19:22:49.228Z,12.65
2023-02-17T19:25:18.550Z,14.43
2023-02-17T19:27:48.731Z,14.55
2023-02-17T19:30:17.899Z,14.15
2023-02-17T19:32:46.748Z,15.32
2023-02-17T19:35:15.891Z,14.15
2023-02-17T19:37:44.733Z,15.43
2023-02-17T19:40:13.922Z,18.35
2023-02-17T19:42:42.738Z,16.15
2023-02-17T19:45:13.265Z,15.32
2023-02-17T19:47:42.064Z,14.75
2023-02-17T19:50:11.448Z,15.85
2023-02-17T19:52:40.245Z,15.05
2023-02-17T19:55:10.096Z,13.50
2023-02-17T19:57:39.066Z,15.55
2023-02-17T20:00:10.251Z,16.38
2023-02-17T20:02:40.505Z,14.48
2023-02-17T20:05:10.263Z,15.30
2023-02-17T20:07:39.158Z,15.77
2023-02-17T20:10:11.147Z,16.40
2023-02-17T20:12:39.993Z,16.20
2023-02-17T20:15:10.140Z,17.17
2023-02-17T20:17:41.153Z,14.80
2023-02-17T20:20:12.262Z,16.05
2023-02-17T20:22:41.442Z,16.70
2023-02-17T20:25:10.773Z,15.63
2023-02-17T20:27:39.560Z,15.57
2023-02-17T20:30:10.403Z,14.48
2023-02-17T20:32:40.807Z,15.50
2023-02-17T20:35:16.587Z,17.23
2023-02-17T20:37:45.448Z,16.25
2023-02-17T20:40:15.129Z,15.60
2023-02-17T20:42:44.034Z,17.92
2023-02-17T20:45:13.128Z,16.52
2023-02-17T20:47:43.408Z,14.65
2023-02-17T20:50:15.713Z,15.07
2023-02-17T20:52:45.298Z,15.13
2023-02-17T20:55:17.083Z,14.70
2023-02-17T20:57:46.094Z,16.17
2023-02-17T21:00:19.310Z,13.10
2023-02-17T21:02:52.265Z,15.00
2023-02-17T21:05:22.233Z,14.05
2023-02-17T21:07:51.446Z,14.60
2023-02-17T21:10:23.798Z,14.10
2023-02-17T21:12:52.668Z,13.80
2023-02-17T21:15:22.174Z,12.85
2023-02-17T21:17:52.593Z,12.30
2023-02-17T21:20:23.284Z,11.45
2023-02-17T21:22:52.593Z,9.73
2023-02-17T21:25:21.816Z,12.70
2023-02-17T21:27:50.640Z,9.82
2023-02-17T21:30:20.235Z,9.70
2023-02-17T21:32:49.249Z,11.98
2023-02-17T21:35:19.730Z,9.65
2023-02-17T21:37:48.577Z,9.13
2023-02-17T21:40:17.876Z,10.25
2023-02-17T21:43:04.354Z,9.95
2023-02-17T21:45:39.455Z,9.25
2023-02-17T21:48:08.781Z,9.68
2023-02-17T21:50:39.660Z,9.48
2023-02-17T21:53:08.500Z,8.77
2023-02-17T21:55:37.658Z,8.02
2023-02-17T21:58:06.462Z,9.15
2023-02-17T22:00:35.592Z,8.38
2023-02-17T22:03:04.440Z,6.35
2023-02-17T22:05:33.958Z,6.93
2023-02-17T22:08:04.331Z,5.10
2023-02-17T22:10:37.962Z,4.40
2023-02-17T22:13:07.326Z,4.30
2023-02-17T22:15:38.089Z,6.10
2023-02-17T22:18:07.430Z,4.88
2023-02-17T22:20:38.034Z,4.22
2023-02-17T22:23:08.203Z,4.10
2023-02-17T22:25:42.127Z,5.03
2023-02-17T22:28:12.875Z,3.63
2023-02-17T22:30:43.165Z,4.35
2023-02-17T22:33:11.974Z,3.55
2023-02-17T22:35:41.032Z,6.43
2023-02-17T22:38:12.140Z,5.32
2023-02-17T22:40:42.035Z,4.63
2023-02-17T22:43:10.902Z,4.28
2023-02-17T22:45:41.077Z,4.93
2023-02-17T22:48:09.934Z,5.65
2023-02-17T22:50:39.819Z,5.03
2023-02-17T22:53:10.220Z,5.88
2023-02-17T22:55:39.306Z,6.97
2023-02-17T22:58:08.110Z,4.82
2023-02-17T23:00:37.277Z,5.22
2023-02-17T23:03:06.083Z,4.40
2023-02-17T23:05:35.228Z,5.53
2023-02-17T23:08:04.060Z,5.22
2023-02-17T23:10:34.497Z,3.55
2023-02-17T23:13:03.303Z,4.70
2023-02-17T23:15:40.354Z,3.78
2023-02-17T23:18:11.701Z,5.43
2023-02-17T23:20:43.787Z,3.17
2023-02-17T23:23:13.766Z,2.88
2023-02-17T23:25:50.069Z,5.00
2023-02-17T23:28:20.269Z,3.72
2023-02-17T23:30:50.482Z,4.43
2023-02-17T23:33:22.823Z,4.47
2023-02-17T23:35:52.153Z,5.05
2023-02-17T23:38:22.980Z,4.82
2023-02-17T23:40:53.986Z,3.67
2023-02-17T23:43:22.831Z,3.85
2023-02-17T23:45:56.101Z,3.50
2023-02-17T23:48:25.312Z,6.72
2023-02-17T23:50:58.965Z,4.45
2023-02-17T23:53:29.136Z,3.50
2023-02-17T23:56:09.511Z,6.20
2023-02-17T23:58:38.700Z,6.07
